Observation data for Guthrie on 11/09/2019      Previous  Date       Current Mesonet Observations  Soil Data  Daily Summary Page  Observations in Plain Language
KPFS 090600Z 22004KT 04/03 A3028 RMK A01 T00420026  RH  090%=      5-min Rain = 0
KPFS 090605Z 22006KT 04/03 A3028 RMK A01 T00410025  RH  091%=      5-min Rain = 0
KPFS 090610Z 21007KT 04/03 A3027 RMK A01 T00400026  RH  092%=      5-min Rain = 0
KPFS 090615Z 20008KT 04/03 A3027 RMK A01 T00400026  RH  092%=      5-min Rain = 0
KPFS 090620Z 20008KT 04/03 A3027 RMK A01 T00440031  RH  093%=      5-min Rain = 0
KPFS 090625Z 20008KT 05/03 A3027 RMK A01 T00460033  RH  093%=      5-min Rain = 0
KPFS 090630Z 21008KT 05/03 A3027 RMK A01 T00460033  RH  093%=      5-min Rain = 0
KPFS 090635Z 21008KT 05/03 A3027 RMK A01 T00450032  RH  093%=      5-min Rain = 0
KPFS 090640Z 21006KT 04/03 A3027 RMK A01 T00430030  RH  093%=      5-min Rain = 0
KPFS 090645Z 21005KT 04/03 A3027 RMK A01 T00390027  RH  093%=      5-min Rain = 0
KPFS 090650Z 21005KT 03/02 A3027 RMK A01 T00340022  RH  093%=      5-min Rain = 0
KPFS 090655Z 21005KT 04/02 A3027 RMK A01 T00350024  RH  094%=      5-min Rain = 0
KPFS 090700Z 21006KT 04/03 A3027 RMK A01 T00380027  RH  094%=      5-min Rain = 0
KPFS 090705Z 22006KT 04/03 A3027 RMK A01 T00370027  RH  095%=      5-min Rain = 0
KPFS 090710Z 22006KT 04/03 A3027 RMK A01 T00370027  RH  095%=      5-min Rain = 0
KPFS 090715Z 22006KT 04/03 A3027 RMK A01 T00360026  RH  095%=      5-min Rain = 0
KPFS 090720Z 22006KT 04/03 A3026 RMK A01 T00350026  RH  095%=      5-min Rain = 0
KPFS 090725Z 22006KT 04/03 A3026 RMK A01 T00390030  RH  095%=      5-min Rain = 0
KPFS 090730Z 21007KT 04/03 A3026 RMK A01 T00410032  RH  096%=      5-min Rain = 0
KPFS 090735Z 20006KT 04/03 A3026 RMK A01 T00410032  RH  096%=      5-min Rain = 0
KPFS 090740Z 21006KT 04/03 A3026 RMK A01 T00420033  RH  096%=      5-min Rain = 0
KPFS 090745Z 21007KT 05/04 A3026 RMK A01 T00450037  RH  096%=      5-min Rain = 0
KPFS 090750Z 21007KT 05/04 A3026 RMK A01 T00490041  RH  096%=      5-min Rain = 0
KPFS 090755Z 21007KT 05/04 A3025 RMK A01 T00510043  RH  096%=      5-min Rain = 0
KPFS 090800Z 21007KT 05/05 A3025 RMK A01 T00530045  RH  096%=      5-min Rain = 0
KPFS 090805Z 22007KT 05/05 A3025 RMK A01 T00540045  RH  096%=      5-min Rain = 0
KPFS 090810Z 22007KT 06/05 A3025 RMK A01 T00550046  RH  096%=      5-min Rain = 0
KPFS 090815Z 22007KT 06/05 A3025 RMK A01 T00560047  RH  096%=      5-min Rain = 0
KPFS 090820Z 23007KT 06/05 A3025 RMK A01 T00560047  RH  096%=      5-min Rain = 0
KPFS 090825Z 22007KT 06/05 A3025 RMK A01 T00550046  RH  095%=      5-min Rain = 0
KPFS 090830Z 22007KT 06/05 A3024 RMK A01 T00560046  RH  095%=      5-min Rain = 0
KPFS 090835Z 22007KT 06/05 A3024 RMK A01 T00570047  RH  095%=      5-min Rain = 0
KPFS 090840Z 22006KT 06/05 A3024 RMK A01 T00570047  RH  095%=      5-min Rain = 0
KPFS 090845Z 23005KT 06/05 A3024 RMK A01 T00570047  RH  095%=      5-min Rain = 0
KPFS 090850Z 23006KT 06/05 A3024 RMK A01 T00560046  RH  095%=      5-min Rain = 0
KPFS 090855Z 22006KT 06/05 A3024 RMK A01 T00570047  RH  095%=      5-min Rain = 0
KPFS 090900Z 23007KT 06/05 A3024 RMK A01 T00580048  RH  095%=      5-min Rain = 0
KPFS 090905Z 23007KT 06/05 A3024 RMK A01 T00590049  RH  095%=      5-min Rain = 0
KPFS 090910Z 23006KT 06/05 A3023 RMK A01 T00590049  RH  095%=      5-min Rain = 0
KPFS 090915Z 22006KT 06/05 A3023 RMK A01 T00590048  RH  095%=      5-min Rain = 0
KPFS 090920Z 22006KT 06/05 A3023 RMK A01 T00580048  RH  095%=      5-min Rain = 0
KPFS 090925Z 22007KT 06/05 A3023 RMK A01 T00590049  RH  095%=      5-min Rain = 0
KPFS 090930Z 22008KT 06/05 A3023 RMK A01 T00600050  RH  095%=      5-min Rain = 0
KPFS 090935Z 22007KT 06/05 A3023 RMK A01 T00610051  RH  095%=      5-min Rain = 0
KPFS 090940Z 22006KT 06/05 A3023 RMK A01 T00610050  RH  095%=      5-min Rain = 0
KPFS 090945Z 21006KT 06/05 A3023 RMK A01 T00600049  RH  094%=      5-min Rain = 0
KPFS 090950Z 22006KT 06/05 A3022 RMK A01 T00600049  RH  094%=      5-min Rain = 0
KPFS 090955Z 21006KT 06/05 A3022 RMK A01 T00590048  RH  094%=      5-min Rain = 0
KPFS 091000Z 21005KT 06/05 A3022 RMK A01 T00600048  RH  094%=      5-min Rain = 0
KPFS 091005Z 22005KT 06/05 A3022 RMK A01 T00590047  RH  094%=      5-min Rain = 0
KPFS 091010Z 22004KT 06/05 A3022 RMK A01 T00560045  RH  094%=      5-min Rain = 0
KPFS 091015Z 22005KT 06/05 A3022 RMK A01 T00560045  RH  094%=      5-min Rain = 0
KPFS 091020Z 22006KT 06/05 A3022 RMK A01 T00560046  RH  095%=      5-min Rain = 0
KPFS 091025Z 21006KT 06/05 A3022 RMK A01 T00560046  RH  095%=      5-min Rain = 0
KPFS 091030Z 20007KT 06/05 A3022 RMK A01 T00580047  RH  095%=      5-min Rain = 0
KPFS 091035Z 20007KT 06/05 A3021 RMK A01 T00560046  RH  095%=      5-min Rain = 0
KPFS 091040Z 19007KT 06/05 A3022 RMK A01 T00550045  RH  095%=      5-min Rain = 0
KPFS 091045Z 19006KT 06/05 A3022 RMK A01 T00550045  RH  095%=      5-min Rain = 0
KPFS 091050Z 20005KT 06/05 A3022 RMK A01 T00550045  RH  095%=      5-min Rain = 0
KPFS 091055Z 21004KT 05/04 A3022 RMK A01 T00540044  RH  095%=      5-min Rain = 0
KPFS 091100Z 21004KT 05/04 A3021 RMK A01 T00530043  RH  095%=      5-min Rain = 0
KPFS 091105Z 21005KT 05/04 A3021 RMK A01 T00530043  RH  095%=      5-min Rain = 0
KPFS 091110Z 21005KT 06/05 A3021 RMK A01 T00550046  RH  096%=      5-min Rain = 0
KPFS 091115Z 22005KT 06/05 A3021 RMK A01 T00550046  RH  096%=      5-min Rain = 0
KPFS 091120Z 24005KT 06/05 A302 RMK A01 T00570048  RH  096%=      5-min Rain = 0
KPFS 091125Z 24006KT 06/05 A302 RMK A01 T00580048  RH  095%=      5-min Rain = 0
KPFS 091130Z 24006KT 06/05 A302 RMK A01 T00590048  RH  095%=      5-min Rain = 0
KPFS 091135Z 24007KT 06/05 A302 RMK A01 T00590048  RH  095%=      5-min Rain = 0
KPFS 091140Z 24007KT 06/05 A302 RMK A01 T00580047  RH  095%=      5-min Rain = 0
KPFS 091145Z 24007KT 06/05 A3021 RMK A01 T00580047  RH  095%=      5-min Rain = 0
KPFS 091150Z 23008KT 06/05 A3021 RMK A01 T00580047  RH  094%=      5-min Rain = 0
KPFS 091155Z 23008KT 06/05 A3021 RMK A01 T00580047  RH  094%=      5-min Rain = 0
KPFS 091200Z 22008KT 06/05 A3021 RMK A01 T00580047  RH  094%=      5-min Rain = 0
KPFS 091205Z 22007KT 06/05 A3021 RMK A01 T00580046  RH  094%=      5-min Rain = 0
KPFS 091210Z 22004KT 06/05 A3021 RMK A01 T00570046  RH  094%=      5-min Rain = 0
KPFS 091215Z 22005KT 06/05 A3021 RMK A01 T00570046  RH  094%=      5-min Rain = 0
KPFS 091220Z 21006KT 06/05 A3021 RMK A01 T00580047  RH  094%=      5-min Rain = 0
KPFS 091225Z 20006KT 06/05 A3021 RMK A01 T00580046  RH  094%=      5-min Rain = 0
KPFS 091230Z 20005KT 06/05 A3021 RMK A01 T00560045  RH  094%=      5-min Rain = 0
KPFS 091235Z 21005KT 06/05 A3021 RMK A01 T00570046  RH  094%=      5-min Rain = 0
KPFS 091240Z 22004KT 06/05 A3021 RMK A01 T00570046  RH  094%=      5-min Rain = 0
KPFS 091245Z 23004KT 06/05 A3021 RMK A01 T00580047  RH  094%=      5-min Rain = 0
KPFS 091250Z 23004KT 06/05 A3021 RMK A01 T00590047  RH  094%=      5-min Rain = 0
KPFS 091255Z 25004KT 06/05 A3021 RMK A01 T00580046  RH  094%=      5-min Rain = 0
KPFS 091300Z 24005KT 06/05 A3021 RMK A01 T00580046  RH  094%=      5-min Rain = 0
KPFS 091305Z 24005KT 06/05 A3021 RMK A01 T00580046  RH  094%=      5-min Rain = 0
KPFS 091310Z 24006KT 06/04 A3021 RMK A01 T00570044  RH  094%=      5-min Rain = 0
KPFS 091315Z 24006KT 06/05 A3021 RMK A01 T00570045  RH  094%=      5-min Rain = 0
KPFS 091320Z 24005KT 06/04 A3022 RMK A01 T00560044  RH  094%=      5-min Rain = 0
KPFS 091325Z 24005KT 06/04 A3022 RMK A01 T00550044  RH  094%=      5-min Rain = 0
KPFS 091330Z 23007KT 06/04 A3022 RMK A01 T00560044  RH  094%=      5-min Rain = 0
KPFS 091335Z 23008KT 06/05 A3022 RMK A01 T00560045  RH  094%=      5-min Rain = 0
KPFS 091340Z 23007KT 06/05 A3022 RMK A01 T00570045  RH  094%=      5-min Rain = 0
KPFS 091345Z 23007KT 06/05 A3022 RMK A01 T00570046  RH  094%=      5-min Rain = 0
KPFS 091350Z 23008KT 06/05 A3022 RMK A01 T00590048  RH  094%=      5-min Rain = 0
KPFS 091355Z 23007KT 06/05 A3022 RMK A01 T00610049  RH  094%=      5-min Rain = 0
KPFS 091400Z 22007KT 06/05 A3022 RMK A01 T00630051  RH  094%=      5-min Rain = 0
KPFS 091405Z 22008KT 07/05 A3022 RMK A01 T00660053  RH  094%=      5-min Rain = 0
KPFS 091410Z 22009KT 07/06 A3023 RMK A01 T00690055  RH  093%=      5-min Rain = 0
KPFS 091415Z 22011KT 07/06 A3023 RMK A01 T00710057  RH  093%=      5-min Rain = 0
KPFS 091420Z 22011KT 07/06 A3023 RMK A01 T00740058  RH  092%=      5-min Rain = 0
KPFS 091425Z 22011KT 08/06 A3023 RMK A01 T00770060  RH  091%=      5-min Rain = 0
KPFS 091430Z 22011KT 08/06 A3023 RMK A01 T00800061  RH  090%=      5-min Rain = 0
KPFS 091435Z 22010KT 08/06 A3023 RMK A01 T00840063  RH  088%=      5-min Rain = 0
KPFS 091440Z 22009KT 09/07 A3023 RMK A01 T00880065  RH  088%=      5-min Rain = 0
KPFS 091445Z 22009KT 09/07 A3023 RMK A01 T00910066  RH  086%=      5-min Rain = 0
KPFS 091450Z 22009KT 09/07 A3023 RMK A01 T00930067  RH  086%=      5-min Rain = 0
KPFS 091455Z 22009KT 10/07 A3023 RMK A01 T00970069  RH  085%=      5-min Rain = 0
KPFS 091500Z 22009KT 10/07 A3023 RMK A01 T00990069  RH  084%=      5-min Rain = 0
KPFS 091505Z 23009KT 10/07 A3023 RMK A01 T01030071  RH  083%=      5-min Rain = 0
KPFS 091510Z 22009KT 11/07 A3023 RMK A01 T01050071  RH  082%=      5-min Rain = 0
KPFS 091515Z 23009KT 11/07 A3023 RMK A01 T01080072  RH  080%=      5-min Rain = 0
KPFS 091520Z 23009KT 11/07 A3023 RMK A01 T01130074  RH  079%=      5-min Rain = 0
KPFS 091525Z 23008KT 12/08 A3023 RMK A01 T01160075  RH  078%=      5-min Rain = 0
KPFS 091530Z 24008KT 12/08 A3023 RMK A01 T01190075  RH  076%=      5-min Rain = 0
KPFS 091535Z 24007KT 13/08 A3023 RMK A01 T01250078  RH  075%=      5-min Rain = 0
KPFS 091540Z 24008KT 13/08 A3023 RMK A01 T01290078  RH  073%=      5-min Rain = 0
KPFS 091545Z 24008KT 13/08 A3023 RMK A01 T01300077  RH  072%=      5-min Rain = 0
KPFS 091550Z 23008KT 13/08 A3023 RMK A01 T01340078  RH  071%=      5-min Rain = 0
KPFS 091555Z 22008KT 14/08 A3023 RMK A01 T01360078  RH  070%=      5-min Rain = 0
KPFS 091600Z 23008KT 14/08 A3023 RMK A01 T01400080  RH  069%=      5-min Rain = 0
KPFS 091605Z 24007KT 15/08 A3023 RMK A01 T01460080  RH  067%=      5-min Rain = 0
KPFS 091610Z 24007KT 15/08 A3023 RMK A01 T01490081  RH  066%=      5-min Rain = 0
KPFS 091615Z 24008KT 15/08 A3023 RMK A01 T01510081  RH  065%=      5-min Rain = 0
KPFS 091620Z 24008KT 16/08 A3023 RMK A01 T01550082  RH  064%=      5-min Rain = 0
KPFS 091625Z 24008KT 16/08 A3023 RMK A01 T01600083  RH  062%=      5-min Rain = 0
KPFS 091630Z 25009KT 16/08 A3023 RMK A01 T01610083  RH  062%=      5-min Rain = 0
KPFS 091635Z 23008KT 17/08 A3023 RMK A01 T01660084  RH  060%=      5-min Rain = 0
KPFS 091640Z 25009KT 17/08 A3023 RMK A01 T01670083  RH  059%=      5-min Rain = 0
KPFS 091645Z 24009KT 17/08 A3023 RMK A01 T01690084  RH  059%=      5-min Rain = 0
KPFS 091650Z 23010KT 17/08 A3022 RMK A01 T01710083  RH  058%=      5-min Rain = 0
KPFS 091655Z 25009KT 17/08 A3022 RMK A01 T01730084  RH  057%=      5-min Rain = 0
KPFS 091700Z 23008KT 18/09 A3022 RMK A01 T01770085  RH  056%=      5-min Rain = 0
KPFS 091705Z 23010KT 18/08 A3022 RMK A01 T01780083  RH  055%=      5-min Rain = 0
KPFS 091710Z 24009KT 18/08 A3022 RMK A01 T01790083  RH  055%=      5-min Rain = 0
KPFS 091715Z 23008KT 18/08 A3022 RMK A01 T01840083  RH  053%=      5-min Rain = 0
KPFS 091720Z 24008KT 19/08 A3022 RMK A01 T01860083  RH  053%=      5-min Rain = 0
KPFS 091725Z 24010KT 19/08 A3021 RMK A01 T01870081  RH  052%=      5-min Rain = 0
KPFS 091730Z 24009KT 19/08 A3021 RMK A01 T01880080  RH  051%=      5-min Rain = 0
KPFS 091735Z 23009KT 19/08 A3021 RMK A01 T01940083  RH  050%=      5-min Rain = 0
KPFS 091740Z 22010G15KT 19/08 A3021 RMK A01 T01910080  RH  050%=      5-min Rain = 0
KPFS 091745Z 23010KT 20/08 A302 RMK A01 T01970082  RH  049%=      5-min Rain = 0
KPFS 091750Z 23010KT 20/08 A302 RMK A01 T01990081  RH  048%=      5-min Rain = 0
KPFS 091755Z 22012KT 20/08 A302 RMK A01 T02000078  RH  046%=      5-min Rain = 0
KPFS 091800Z 23010KT 20/08 A3019 RMK A01 T02000079  RH  047%=      5-min Rain = 0
KPFS 091805Z 23011KT 20/08 A3019 RMK A01 T02040078  RH  045%=      5-min Rain = 0
KPFS 091810Z 22012KT 20/08 A3019 RMK A01 T02020077  RH  045%=      5-min Rain = 0
KPFS 091815Z 22012KT 21/08 A3018 RMK A01 T02060077  RH  044%=      5-min Rain = 0
KPFS 091820Z 22010KT 21/08 A3018 RMK A01 T02110078  RH  044%=      5-min Rain = 0
KPFS 091825Z 22011G16KT 21/08 A3018 RMK A01 T02100078  RH  044%=      5-min Rain = 0
KPFS 091830Z 24011KT 21/08 A3017 RMK A01 T02120075  RH  042%=      5-min Rain = 0
KPFS 091835Z 24011G16KT 22/08 A3017 RMK A01 T02170076  RH  041%=      5-min Rain = 0
KPFS 091840Z 23012KT 22/08 A3016 RMK A01 T02150078  RH  042%=      5-min Rain = 0
KPFS 091845Z 23012KT 22/07 A3016 RMK A01 T02160074  RH  041%=      5-min Rain = 0
KPFS 091850Z 23012KT 22/07 A3016 RMK A01 T02160072  RH  041%=      5-min Rain = 0
KPFS 091855Z 24010KT 22/08 A3015 RMK A01 T02190075  RH  040%=      5-min Rain = 0
KPFS 091900Z 24011KT 22/08 A3015 RMK A01 T02210075  RH  040%=      5-min Rain = 0
KPFS 091905Z 23010G15KT 22/08 A3015 RMK A01 T02220077  RH  040%=      5-min Rain = 0
KPFS 091910Z 22010KT 22/07 A3015 RMK A01 T02240073  RH  039%=      5-min Rain = 0
KPFS 091915Z 23009KT 23/08 A3014 RMK A01 T02260078  RH  040%=      5-min Rain = 0
KPFS 091920Z 24010KT 23/07 A3014 RMK A01 T02260069  RH  037%=      5-min Rain = 0
KPFS 091925Z 25011KT 23/07 A3014 RMK A01 T02250072  RH  038%=      5-min Rain = 0
KPFS 091930Z 25009KT 23/08 A3014 RMK A01 T02310076  RH  038%=      5-min Rain = 0
KPFS 091935Z 23010G15KT 23/07 A3014 RMK A01 T02280074  RH  038%=      5-min Rain = 0
KPFS 091940Z 21010KT 23/07 A3014 RMK A01 T02300072  RH  037%=      5-min Rain = 0
KPFS 091945Z 22010G15KT 23/07 A3013 RMK A01 T02290074  RH  038%=      5-min Rain = 0
KPFS 091950Z 21011KT 23/07 A3013 RMK A01 T02300071  RH  037%=      5-min Rain = 0
KPFS 091955Z 21007KT 23/08 A3013 RMK A01 T02300076  RH  038%=      5-min Rain = 0
KPFS 092000Z 23009KT 23/07 A3012 RMK A01 T02320071  RH  036%=      5-min Rain = 0
KPFS 092005Z 23008KT 24/07 A3012 RMK A01 T02350074  RH  036%=      5-min Rain = 0.01
KPFS 092010Z 21010G15KT 23/07 A3012 RMK A01 T02330072  RH  037%=      5-min Rain = 0
KPFS 092015Z 22009KT 23/07 A3012 RMK A01 T02330071  RH  036%=      5-min Rain = 0
KPFS 092020Z 24009KT 24/07 A3012 RMK A01 T02360068  RH  035%=      5-min Rain = 0
KPFS 092025Z 23008KT 24/07 A3012 RMK A01 T02380069  RH  035%=      5-min Rain = 0
KPFS 092030Z 21008KT 24/07 A3012 RMK A01 T02370067  RH  034%=      5-min Rain = 0
KPFS 092035Z 24007KT 24/07 A3011 RMK A01 T02390067  RH  034%=      5-min Rain = 0
KPFS 092040Z 23008KT 24/07 A3011 RMK A01 T02400069  RH  034%=      5-min Rain = 0
KPFS 092045Z 22007G12KT 24/07 A3011 RMK A01 T02390066  RH  034%=      5-min Rain = 0
KPFS 092050Z 22008KT 24/07 A3011 RMK A01 T02390070  RH  035%=      5-min Rain = 0
KPFS 092055Z 21008KT 24/07 A3011 RMK A01 T02380070  RH  035%=      5-min Rain = 0
KPFS 092100Z 22007KT 24/07 A301 RMK A01 T02410072  RH  035%=      5-min Rain = 0
KPFS 092105Z 21010KT 24/07 A301 RMK A01 T02410071  RH  034%=      5-min Rain = 0
KPFS 092110Z 21008KT 24/07 A301 RMK A01 T02410069  RH  034%=      5-min Rain = 0
KPFS 092115Z 22009KT 24/07 A301 RMK A01 T02410070  RH  034%=      5-min Rain = 0
KPFS 092120Z 21008KT 24/07 A301 RMK A01 T02400069  RH  034%=      5-min Rain = 0
KPFS 092125Z 20008KT 24/07 A3009 RMK A01 T02400069  RH  034%=      5-min Rain = 0
KPFS 092130Z 22007KT 24/07 A3009 RMK A01 T02410070  RH  034%=      5-min Rain = 0
KPFS 092135Z 22008KT 24/07 A3009 RMK A01 T02420069  RH  034%=      5-min Rain = 0
KPFS 092140Z 21008KT 24/07 A3009 RMK A01 T02420070  RH  034%=      5-min Rain = 0
KPFS 092145Z 22008KT 24/07 A3009 RMK A01 T02410067  RH  034%=      5-min Rain = 0
KPFS 092150Z 21010G15KT 24/06 A3009 RMK A01 T02410064  RH  033%=      5-min Rain = 0
KPFS 092155Z 21008KT 24/06 A3009 RMK A01 T02390061  RH  033%=      5-min Rain = 0
KPFS 092200Z 20009KT 24/06 A3009 RMK A01 T02400061  RH  032%=      5-min Rain = 0
KPFS 092205Z 22008G13KT 24/06 A3009 RMK A01 T02400063  RH  033%=      5-min Rain = 0
KPFS 092210Z 22009G14KT 24/06 A3009 RMK A01 T02390063  RH  033%=      5-min Rain = 0
KPFS 092215Z 23007KT 24/06 A3008 RMK A01 T02390061  RH  033%=      5-min Rain = 0
KPFS 092220Z 22008KT 24/06 A3008 RMK A01 T02390061  RH  032%=      5-min Rain = 0
KPFS 092225Z 23007KT 24/06 A3008 RMK A01 T02380060  RH  033%=      5-min Rain = 0
KPFS 092230Z 21007G12KT 24/06 A3008 RMK A01 T02390064  RH  033%=      5-min Rain = 0
KPFS 092235Z 21007KT 24/06 A3008 RMK A01 T02360060  RH  033%=      5-min Rain = 0
KPFS 092240Z 22006KT 24/06 A3008 RMK A01 T02370062  RH  033%=      5-min Rain = 0
KPFS 092245Z 21007KT 24/06 A3008 RMK A01 T02350063  RH  034%=      5-min Rain = 0
KPFS 092250Z 20006KT 23/06 A3008 RMK A01 T02330063  RH  034%=      5-min Rain = 0
KPFS 092255Z 21006KT 23/07 A3008 RMK A01 T02320066  RH  035%=      5-min Rain = 0
KPFS 092300Z 19006KT 23/07 A3008 RMK A01 T02290072  RH  037%=      5-min Rain = 0
KPFS 092305Z 19008KT 22/08 A3008 RMK A01 T02230075  RH  040%=      5-min Rain = 0
KPFS 092310Z 18007KT 22/08 A3008 RMK A01 T02180075  RH  041%=      5-min Rain = 0
KPFS 092315Z 18006KT 22/08 A3008 RMK A01 T02160076  RH  042%=      5-min Rain = 0
KPFS 092320Z 18007KT 21/08 A3008 RMK A01 T02120075  RH  042%=      5-min Rain = 0
KPFS 092325Z 18007KT 21/07 A3008 RMK A01 T02060074  RH  044%=      5-min Rain = 0
KPFS 092330Z 18007KT 20/07 A3008 RMK A01 T02000073  RH  045%=      5-min Rain = 0
KPFS 092335Z 18008KT 20/07 A3007 RMK A01 T01960073  RH  046%=      5-min Rain = 0
KPFS 092340Z 18008KT 19/07 A3007 RMK A01 T01910073  RH  047%=      5-min Rain = 0
KPFS 092345Z 17009KT 19/07 A3007 RMK A01 T01880073  RH  048%=      5-min Rain = 0
KPFS 092350Z 17009KT 18/07 A3008 RMK A01 T01840072  RH  049%=      5-min Rain = 0
KPFS 092355Z 17009KT 18/07 A3008 RMK A01 T01830072  RH  049%=      5-min Rain = 0
KPFS 100000Z 17009KT 18/07 A3008 RMK A01 T01830072  RH  050%=      5-min Rain = 0
KPFS 100005Z 17010KT 18/07 A3008 RMK A01 T01810073  RH  050%=      5-min Rain = 0
KPFS 100010Z 17010KT 18/07 A3008 RMK A01 T01780073  RH  052%=      5-min Rain = 0
KPFS 100015Z 17010KT 17/07 A3008 RMK A01 T01730073  RH  053%=      5-min Rain = 0
KPFS 100020Z 17010KT 17/07 A3008 RMK A01 T01740073  RH  053%=      5-min Rain = 0
KPFS 100025Z 17010KT 17/07 A3008 RMK A01 T01740074  RH  053%=      5-min Rain = 0
KPFS 100030Z 17009KT 17/07 A3008 RMK A01 T01700074  RH  055%=      5-min Rain = 0
KPFS 100035Z 17010KT 17/07 A3008 RMK A01 T01650074  RH  056%=      5-min Rain = 0
KPFS 100040Z 16009KT 16/07 A3008 RMK A01 T01590074  RH  059%=      5-min Rain = 0
KPFS 100045Z 16009KT 16/08 A3008 RMK A01 T01570076  RH  060%=      5-min Rain = 0
KPFS 100050Z 17009KT 16/08 A3008 RMK A01 T01580076  RH  059%=      5-min Rain = 0
KPFS 100055Z 16010KT 16/08 A3008 RMK A01 T01570076  RH  060%=      5-min Rain = 0
KPFS 100100Z 17010KT 16/08 A3008 RMK A01 T01560076  RH  060%=      5-min Rain = 0
KPFS 100105Z 17009KT 16/08 A3008 RMK A01 T01560076  RH  061%=      5-min Rain = 0
KPFS 100110Z 17009KT 15/08 A3008 RMK A01 T01530077  RH  062%=      5-min Rain = 0
KPFS 100115Z 16010KT 15/08 A3008 RMK A01 T01500077  RH  063%=      5-min Rain = 0
KPFS 100120Z 16009KT 15/08 A3009 RMK A01 T01480078  RH  065%=      5-min Rain = 0
KPFS 100125Z 17009KT 15/08 A3009 RMK A01 T01470079  RH  065%=      5-min Rain = 0
KPFS 100130Z 17009KT 15/08 A3009 RMK A01 T01460080  RH  066%=      5-min Rain = 0
KPFS 100135Z 17008KT 14/08 A3009 RMK A01 T01440080  RH  067%=      5-min Rain = 0
KPFS 100140Z 17007KT 14/08 A3009 RMK A01 T01410080  RH  069%=      5-min Rain = 0
KPFS 100145Z 17008KT 14/08 A3009 RMK A01 T01410081  RH  069%=      5-min Rain = 0
KPFS 100150Z 17006KT 14/08 A3009 RMK A01 T01390079  RH  069%=      5-min Rain = 0
KPFS 100155Z 17006KT 13/08 A3009 RMK A01 T01330080  RH  072%=      5-min Rain = 0
KPFS 100200Z 17006KT 14/08 A3009 RMK A01 T01350081  RH  072%=      5-min Rain = 0
KPFS 100205Z 18005KT 13/08 A3009 RMK A01 T01340081  RH  072%=      5-min Rain = 0
KPFS 100210Z 18005KT 13/08 A3009 RMK A01 T01320081  RH  073%=      5-min Rain = 0
KPFS 100215Z 18006KT 13/08 A3009 RMK A01 T01320081  RH  073%=      5-min Rain = 0
KPFS 100220Z 18008KT 13/08 A3009 RMK A01 T01310082  RH  074%=      5-min Rain = 0
KPFS 100225Z 18008KT 13/08 A3009 RMK A01 T01320083  RH  074%=      5-min Rain = 0
KPFS 100230Z 18008KT 13/08 A3009 RMK A01 T01320083  RH  074%=      5-min Rain = 0
KPFS 100235Z 18008KT 13/08 A3009 RMK A01 T01320083  RH  074%=      5-min Rain = 0
KPFS 100240Z 18008KT 13/08 A3008 RMK A01 T01320083  RH  075%=      5-min Rain = 0
KPFS 100245Z 18007KT 13/08 A3008 RMK A01 T01320083  RH  075%=      5-min Rain = 0
KPFS 100250Z 18006KT 13/08 A3009 RMK A01 T01290082  RH  075%=      5-min Rain = 0
KPFS 100255Z 19006KT 13/08 A3009 RMK A01 T01270082  RH  076%=      5-min Rain = 0
KPFS 100300Z 19006KT 12/08 A3009 RMK A01 T01240081  RH  077%=      5-min Rain = 0
KPFS 100305Z 19006KT 12/08 A3009 RMK A01 T01220081  RH  078%=      5-min Rain = 0
KPFS 100310Z 18006KT 12/08 A3009 RMK A01 T01220081  RH  078%=      5-min Rain = 0
KPFS 100315Z 18007KT 12/08 A3009 RMK A01 T01230082  RH  078%=      5-min Rain = 0
KPFS 100320Z 18007KT 13/08 A3009 RMK A01 T01260083  RH  077%=      5-min Rain = 0
KPFS 100325Z 18007KT 13/08 A3009 RMK A01 T01260082  RH  077%=      5-min Rain = 0
KPFS 100330Z 18008KT 13/08 A3009 RMK A01 T01260082  RH  077%=      5-min Rain = 0
KPFS 100335Z 18007KT 13/08 A3008 RMK A01 T01250082  RH  077%=      5-min Rain = 0
KPFS 100340Z 19007KT 12/08 A3008 RMK A01 T01220081  RH  078%=      5-min Rain = 0
KPFS 100345Z 19007KT 12/08 A3008 RMK A01 T01200081  RH  079%=      5-min Rain = 0
KPFS 100350Z 19006KT 12/08 A3008 RMK A01 T01200081  RH  079%=      5-min Rain = 0
KPFS 100355Z 19006KT 12/08 A3008 RMK A01 T01190081  RH  079%=      5-min Rain = 0
KPFS 100400Z 19006KT 12/08 A3008 RMK A01 T01220082  RH  079%=      5-min Rain = 0
KPFS 100405Z 19006KT 12/08 A3008 RMK A01 T01220080  RH  078%=      5-min Rain = 0
KPFS 100410Z 19006KT 12/08 A3008 RMK A01 T01220081  RH  078%=      5-min Rain = 0
KPFS 100415Z 19006KT 12/08 A3008 RMK A01 T01230082  RH  078%=      5-min Rain = 0
KPFS 100420Z 19005KT 12/08 A3009 RMK A01 T01230080  RH  077%=      5-min Rain = 0
KPFS 100425Z 20006KT 12/08 A3008 RMK A01 T01210080  RH  078%=      5-min Rain = 0
KPFS 100430Z 19006KT 12/08 A3008 RMK A01 T01220081  RH  078%=      5-min Rain = 0
KPFS 100435Z 20006KT 12/08 A3008 RMK A01 T01210079  RH  078%=      5-min Rain = 0
KPFS 100440Z 19005KT 12/08 A3008 RMK A01 T01180078  RH  079%=      5-min Rain = 0
KPFS 100445Z 20005KT 12/08 A3008 RMK A01 T01170078  RH  079%=      5-min Rain = 0
KPFS 100450Z 20004KT 12/08 A3008 RMK A01 T01150077  RH  080%=      5-min Rain = 0
KPFS 100455Z 20002KT 11/08 A3008 RMK A01 T01140078  RH  081%=      5-min Rain = 0
KPFS 100500Z 18002KT 12/08 A3008 RMK A01 T01160079  RH  080%=      5-min Rain = 0
KPFS 100505Z 20001KT 12/08 A3008 RMK A01 T01170079  RH  080%=      5-min Rain = 0
KPFS 100510Z 22001KT 12/08 A3008 RMK A01 T01190080  RH  079%=      5-min Rain = 0
KPFS 100515Z 23001KT 12/08 A3008 RMK A01 T01190080  RH  079%=      5-min Rain = 0
KPFS 100520Z 25001KT 12/08 A3008 RMK A01 T01190080  RH  079%=      5-min Rain = 0
KPFS 100525Z 28000KT 12/08 A3008 RMK A01 T01170078  RH  079%=      5-min Rain = 0
KPFS 100530Z 28001KT 12/08 A3008 RMK A01 T01150079  RH  080%=      5-min Rain = 0
KPFS 100535Z 21001KT 11/08 A3008 RMK A01 T01140079  RH  081%=      5-min Rain = 0
KPFS 100540Z 17001KT 11/08 A3008 RMK A01 T01120078  RH  082%=      5-min Rain = 0
KPFS 100545Z 19001KT 11/08 A3008 RMK A01 T01120079  RH  082%=      5-min Rain = 0
KPFS 100550Z 21002KT 12/08 A3008 RMK A01 T01150081  RH  082%=      5-min Rain = 0
KPFS 100555Z 21003KT 12/08 A3008 RMK A01 T01150080  RH  081%=      5-min Rain = 0

Page generated in 0.0091 seconds.